Time;durP1;ratioP1;P1;durP2;ratioP2;P2;SDS_P1;SDS_P2;PMS_P1;PMS_P2;Temp;Humidity;BMP_temperature;BMP_pressure;BME280_temperature;BME280_humidity;BME280_pressure;Samples;Min_cycle;Max_cycle;Signal;HPM_P1;HPM_P2
2022/05/15 00:02:14;;;;;;;9.30;3.80;;;;;;;11.68;59.62;100472.26;107036;1273;25305;-79
2022/05/15 00:04:41;;;;;;;5.90;3.10;;;;;;;11.67;59.61;100478.09;107334;1273;22527;-80
2022/05/15 00:07:08;;;;;;;9.20;3.10;;;;;;;11.64;59.66;100475.48;107454;1272;25811;-79
2022/05/15 00:09:35;;;;;;;8.70;3.90;;;;;;;11.60;59.73;100474.48;107285;1271;23219;-79
2022/05/15 00:12:04;;;;;;;9.50;3.50;;;;;;;11.59;59.76;100473.78;107142;1273;24629;-76
2022/05/15 00:14:34;;;;;;;8.90;4.20;;;;;;;11.59;59.84;100475.20;106884;1273;22475;-78
2022/05/15 00:17:01;;;;;;;8.30;3.60;;;;;;;11.59;59.92;100481.53;106885;1273;24157;-76
2022/05/15 00:19:28;;;;;;;6.80;3.20;;;;;;;11.57;60.01;100481.57;106548;1273;23968;-75
2022/05/15 00:21:55;;;;;;;6.30;3.20;;;;;;;11.50;59.97;100481.28;106778;1273;22542;-77
2022/05/15 00:24:22;;;;;;;11.20;3.40;;;;;;;11.45;60.12;100480.11;106470;1273;25479;-80
2022/05/15 00:26:49;;;;;;;10.30;4.00;;;;;;;11.40;60.17;100478.05;106617;1273;24072;-77
2022/05/15 00:29:16;;;;;;;10.30;4.10;;;;;;;11.39;60.23;100481.95;106357;1273;22548;-78
2022/05/15 00:31:43;;;;;;;9.30;4.10;;;;;;;11.35;60.29;100483.23;106614;1272;22614;-78
2022/05/15 00:34:10;;;;;;;8.80;4.20;;;;;;;11.30;60.36;100486.27;106489;1271;22872;-75
2022/05/15 00:36:37;;;;;;;8.30;3.10;;;;;;;11.27;60.43;100488.42;106393;1273;22851;-78
2022/05/15 00:39:06;;;;;;;8.00;2.80;;;;;;;11.25;60.51;100486.14;106285;1272;23956;-76
2022/05/15 00:41:34;;;;;;;9.30;3.50;;;;;;;11.24;60.43;100487.39;106234;1271;23951;-79
2022/05/15 00:44:01;;;;;;;7.30;3.30;;;;;;;11.22;60.42;100487.94;106268;1273;25466;-78
2022/05/15 00:46:36;;;;;;;8.90;3.20;;;;;;;11.21;60.35;100487.08;106223;1271;26477;-76
2022/05/15 00:49:12;;;;;;;7.70;2.70;;;;;;;11.21;60.36;100487.25;106046;1271;22697;-76
2022/05/15 00:51:42;;;;;;;7.30;2.90;;;;;;;11.19;60.38;100485.85;105956;1278;24239;-75
2022/05/15 00:54:25;;;;;;;9.30;3.10;;;;;;;11.14;60.44;100486.79;105882;1277;23935;-72
2022/05/15 00:57:04;;;;;;;7.80;3.00;;;;;;;11.12;60.48;100485.57;105827;1277;26559;-75
2022/05/15 00:59:40;;;;;;;8.60;3.00;;;;;;;11.10;60.60;100485.42;105564;1282;22550;-77
2022/05/15 01:02:10;;;;;;;10.00;3.20;;;;;;;11.07;60.62;100483.49;105523;1282;23989;-73
2022/05/15 01:04:37;;;;;;;8.70;3.20;;;;;;;11.04;60.67;100484.05;105245;1282;22779;-76
2022/05/15 01:07:05;;;;;;;7.00;2.70;;;;;;;11.01;60.72;100483.38;105615;1282;22537;-74
2022/05/15 01:09:33;;;;;;;8.60;2.70;;;;;;;11.01;60.75;100486.56;105771;1279;24440;-77
2022/05/15 01:12:03;;;;;;;6.80;3.00;;;;;;;11.01;60.76;100486.73;105832;1277;22565;-78
2022/05/15 01:14:32;;;;;;;9.50;2.70;;;;;;;11.04;60.85;100486.00;105848;1279;26551;-78
2022/05/15 01:16:59;;;;;;;5.90;2.30;;;;;;;11.03;60.76;100490.23;105879;1273;23293;-76
2022/05/15 01:19:36;;;;;;;13.00;2.90;;;;;;;11.00;60.81;100486.38;105727;1279;24208;-75
2022/05/15 01:22:05;;;;;;;6.40;2.50;;;;;;;10.98;60.78;100485.35;106023;1277;25558;-75
2022/05/15 01:24:33;;;;;;;8.20;2.70;;;;;;;10.98;60.94;100486.77;105290;1283;22666;-73
2022/05/15 01:27:05;;;;;;;7.70;3.00;;;;;;;10.94;60.87;100485.92;105213;1283;25415;-78
2022/05/15 01:29:36;;;;;;;8.90;3.60;;;;;;;10.90;60.86;100491.24;104947;1284;24204;-77
2022/05/15 01:32:05;;;;;;;6.30;3.10;;;;;;;10.84;60.95;100488.11;104848;1285;22543;-80
2022/05/15 01:34:32;;;;;;;6.00;2.80;;;;;;;10.81;61.14;100488.30;104729;1288;24348;-78
2022/05/15 01:37:02;;;;;;;5.60;2.20;;;;;;;10.75;61.25;100488.02;105022;1281;22563;-81
2022/05/15 01:39:30;;;;;;;5.90;2.60;;;;;;;10.70;61.33;100489.46;105206;1281;22505;-78
2022/05/15 01:41:57;;;;;;;7.50;2.40;;;;;;;10.68;61.40;100492.30;105426;1279;24305;-79
2022/05/15 01:44:25;;;;;;;9.20;3.00;;;;;;;10.65;61.55;100492.84;105800;1279;25256;-81
2022/05/15 01:46:53;;;;;;;6.00;2.70;;;;;;;10.60;61.47;100496.77;105630;1279;24759;-79
2022/05/15 01:49:20;;;;;;;5.40;2.50;;;;;;;10.57;61.66;100499.42;105768;1278;24915;-77
2022/05/15 01:51:49;;;;;;;7.30;3.30;;;;;;;10.56;61.66;100502.59;105634;1273;22559;-77
2022/05/15 01:54:16;;;;;;;8.10;2.90;;;;;;;10.56;61.75;100501.37;106171;1273;24313;-78
2022/05/15 01:56:43;;;;;;;8.50;2.70;;;;;;;10.58;61.90;100501.89;106278;1273;24411;-78
2022/05/15 01:59:10;;;;;;;10.10;2.50;;;;;;;10.56;61.92;100504.02;106290;1273;22563;-78
2022/05/15 02:01:38;;;;;;;6.20;2.50;;;;;;;10.53;61.97;100502.44;106055;1273;22697;-79
2022/05/15 02:04:07;;;;;;;11.20;2.90;;;;;;;10.55;62.13;100507.55;106324;1273;25594;-79
2022/05/15 02:06:36;;;;;;;5.30;2.60;;;;;;;10.54;61.99;100507.02;106125;1273;25268;-79
2022/05/15 02:09:04;;;;;;;5.40;3.30;;;;;;;10.50;62.14;100505.45;106273;1271;22564;-80
2022/05/15 02:11:32;;;;;;;5.50;2.40;;;;;;;10.46;62.18;100506.02;106169;1271;24251;-77
2022/05/15 02:14:00;;;;;;;9.40;2.60;;;;;;;10.39;62.25;100509.71;106273;1271;24227;-81
2022/05/15 02:16:27;;;;;;;6.80;2.70;;;;;;;10.33;62.44;100510.11;106188;1272;22542;-77
2022/05/15 02:18:54;;;;;;;6.40;2.50;;;;;;;10.28;62.48;100512.26;106096;1274;26671;-78
2022/05/15 02:21:23;;;;;;;6.20;2.30;;;;;;;10.25;62.64;100512.80;105975;1276;25537;-77
2022/05/15 02:23:50;;;;;;;8.50;2.90;;;;;;;10.21;62.75;100511.23;105992;1276;22912;-76
2022/05/15 02:26:17;;;;;;;5.90;2.30;;;;;;;10.19;62.92;100514.77;105765;1277;25255;-77
2022/05/15 02:28:44;;;;;;;6.40;2.40;;;;;;;10.17;62.99;100509.50;106058;1276;22824;-76
2022/05/15 02:31:12;;;;;;;5.20;2.30;;;;;;;10.15;63.04;100510.58;105853;1276;24098;-74
2022/05/15 02:33:39;;;;;;;5.40;2.40;;;;;;;10.11;63.07;100510.60;105772;1281;25709;-74
2022/05/15 02:36:06;;;;;;;5.80;2.30;;;;;;;10.10;63.27;100511.48;105685;1279;22525;-74
2022/05/15 02:38:35;;;;;;;8.60;2.50;;;;;;;10.06;63.13;100512.03;105796;1276;23942;-74
2022/05/15 02:41:02;;;;;;;6.40;3.10;;;;;;;10.02;63.30;100517.68;105790;1277;25409;-73
2022/05/15 02:43:29;;;;;;;12.90;2.90;;;;;;;9.94;63.30;100512.25;105755;1276;22549;-74
2022/05/15 02:45:57;;;;;;;9.20;3.60;;;;;;;9.96;63.39;100520.52;105863;1271;25247;-72
2022/05/15 02:51:12;;;;;;;10.60;3.10;;;;;;;9.90;63.53;100518.95;106209;1273;24258;-73
2022/05/15 02:53:42;;;;;;;3.80;1.80;;;;;;;9.89;63.64;100516.67;106200;1273;22636;-75
2022/05/15 02:56:17;;;;;;;4.70;2.00;;;;;;;9.88;63.52;100517.04;106281;1271;22550;-73
2022/05/15 02:58:45;;;;;;;8.50;2.60;;;;;;;9.85;63.69;100520.73;106454;1271;25234;-75
2022/05/15 03:01:13;;;;;;;6.20;2.40;;;;;;;9.84;63.86;100523.91;106213;1270;25245;-74
2022/05/15 03:03:41;;;;;;;9.00;2.90;;;;;;;9.85;63.93;100528.31;106230;1270;25079;-77
2022/05/15 03:06:09;;;;;;;7.80;2.50;;;;;;;9.82;63.93;100526.02;106103;1273;22548;-74
2022/05/15 03:08:41;;;;;;;6.20;2.30;;;;;;;9.78;64.01;100527.44;106186;1273;22538;-75
2022/05/15 03:11:09;;;;;;;9.10;2.40;;;;;;;9.78;64.18;100526.05;106370;1270;22529;-77
2022/05/15 03:13:37;;;;;;;7.00;2.60;;;;;;;9.78;64.21;100525.15;106205;1270;23957;-76
2022/05/15 03:16:06;;;;;;;7.80;2.30;;;;;;;9.76;64.14;100524.46;106431;1270;25262;-75
2022/05/15 03:18:38;;;;;;;6.10;2.50;;;;;;;9.75;64.28;100527.99;106293;1273;23946;-76
2022/05/15 03:21:06;;;;;;;5.10;2.10;;;;;;;9.78;64.43;100529.73;106312;1273;25237;-82
2022/05/15 03:23:33;;;;;;;7.80;2.30;;;;;;;9.78;64.23;100529.73;106019;1273;25301;-80
2022/05/15 03:26:00;;;;;;;6.10;2.50;;;;;;;9.78;64.38;100530.09;106511;1271;24306;-79
2022/05/15 03:28:27;;;;;;;11.60;2.70;;;;;;;9.73;64.35;100534.85;106343;1271;22534;-81
2022/05/15 03:30:54;;;;;;;6.60;2.40;;;;;;;9.72;64.53;100538.02;106512;1273;22559;-83
2022/05/15 03:33:21;;;;;;;9.40;3.00;;;;;;;9.70;64.62;100537.33;106526;1272;22748;-80
2022/05/15 03:35:49;;;;;;;7.90;3.20;;;;;;;9.65;64.58;100535.23;106556;1272;22933;-86
2022/05/15 03:38:16;;;;;;;5.90;2.40;;;;;;;9.63;64.81;100539.45;107093;1272;22728;-81
2022/05/15 03:40:44;;;;;;;9.70;2.70;;;;;;;9.60;64.95;100539.29;108288;1272;23897;-80
2022/05/15 03:43:11;;;;;;;11.40;3.10;;;;;;;9.59;65.02;100541.58;108132;1273;23817;-82
2022/05/15 03:45:38;;;;;;;7.50;2.90;;;;;;;9.64;65.32;100546.14;108997;1273;22540;-80
2022/05/15 03:48:06;;;;;;;7.10;2.50;;;;;;;9.67;65.12;100545.96;108953;1271;22598;-82
2022/05/15 03:50:33;;;;;;;8.50;2.60;;;;;;;9.65;65.12;100547.02;108740;1271;23155;-79
2022/05/15 03:53:00;;;;;;;5.70;2.70;;;;;;;9.61;65.33;100545.80;107916;1272;25363;-77
2022/05/15 03:55:27;;;;;;;9.20;3.10;;;;;;;9.61;65.37;100549.31;107046;1271;22536;-77
2022/05/15 03:57:56;;;;;;;9.60;2.90;;;;;;;9.63;65.50;100548.95;106526;1272;23450;-78
2022/05/15 04:00:25;;;;;;;7.70;2.70;;;;;;;9.68;65.41;100550.52;106410;1273;25237;-77
2022/05/15 04:02:52;;;;;;;9.30;2.90;;;;;;;9.72;65.43;100555.09;106374;1272;22564;-75
2022/05/15 04:05:20;;;;;;;8.80;3.60;;;;;;;9.71;65.38;100559.66;106660;1272;22612;-76
2022/05/15 04:07:50;;;;;;;6.80;3.30;;;;;;;9.73;65.49;100560.52;106329;1273;23058;-76
2022/05/15 04:10:22;;;;;;;5.50;2.80;;;;;;;9.75;65.43;100562.98;106409;1273;22710;-75
2022/05/15 04:12:49;;;;;;;8.70;2.90;;;;;;;9.73;65.37;100568.08;106229;1273;25318;-72
2022/05/15 04:15:17;;;;;;;7.40;2.70;;;;;;;9.70;65.52;100571.98;106444;1273;25351;-76
2022/05/15 04:17:47;;;;;;;8.20;2.50;;;;;;;9.67;65.56;100572.33;106548;1271;22541;-78
2022/05/15 04:20:22;;;;;;;6.70;2.70;;;;;;;9.68;65.72;100575.13;106568;1271;25386;-75
2022/05/15 04:22:50;;;;;;;5.70;3.00;;;;;;;9.73;65.86;100580.05;106910;1273;22762;-78
2022/05/15 04:25:18;;;;;;;8.00;3.50;;;;;;;9.77;65.75;100586.36;106592;1273;22591;-78
2022/05/15 04:27:46;;;;;;;3.60;2.50;;;;;;;9.72;65.69;100582.34;106155;1273;24275;-79
2022/05/15 04:30:20;;;;;;;6.00;2.70;;;;;;;9.73;65.67;100581.46;106167;1271;22872;-78
2022/05/15 04:32:47;;;;;;;5.00;3.00;;;;;;;9.75;65.92;100582.15;106354;1273;25372;-83
2022/05/15 04:35:14;;;;;;;8.80;2.40;;;;;;;9.77;65.80;100580.20;106517;1272;25330;-79
2022/05/15 04:37:44;;;;;;;9.10;3.00;;;;;;;9.78;65.81;100584.25;107346;1273;24323;-78
2022/05/15 04:40:13;;;;;;;6.60;3.00;;;;;;;9.78;65.82;100587.77;106044;1278;23926;-77
2022/05/15 04:42:41;;;;;;;6.60;2.80;;;;;;;9.79;65.79;100580.38;106180;1281;25259;-78
2022/05/15 04:45:10;;;;;;;6.70;2.60;;;;;;;9.84;65.84;100581.43;106023;1279;25449;-81
2022/05/15 04:47:37;;;;;;;6.80;2.90;;;;;;;9.85;65.89;100583.20;106106;1279;25608;-83
2022/05/15 04:50:05;;;;;;;10.40;2.40;;;;;;;9.89;65.74;100584.58;105883;1281;24008;-77
2022/05/15 04:52:32;;;;;;;7.40;3.00;;;;;;;9.95;65.62;100586.48;105963;1281;24263;-80
2022/05/15 04:55:00;;;;;;;6.40;2.70;;;;;;;9.99;65.44;100589.13;105973;1281;299047;-79
2022/05/15 04:57:27;;;;;;;7.20;2.60;;;;;;;10.03;65.21;100591.05;105890;1277;24368;-74
2022/05/15 04:59:54;;;;;;;5.20;1.90;;;;;;;10.06;64.93;100592.08;106177;1273;24543;-79
2022/05/15 05:02:22;;;;;;;6.80;2.50;;;;;;;10.07;64.72;100589.98;106222;1273;25388;-78
2022/05/15 05:04:49;;;;;;;6.30;2.70;;;;;;;10.13;64.51;100594.88;105963;1271;23339;-78
2022/05/15 05:07:16;;;;;;;7.20;2.20;;;;;;;10.17;64.02;100598.90;106138;1273;22531;-75
2022/05/15 05:09:43;;;;;;;8.30;2.40;;;;;;;10.19;63.78;100599.25;106009;1273;24196;-78
2022/05/15 05:12:10;;;;;;;9.10;2.90;;;;;;;10.22;63.40;100597.46;106101;1271;22570;-77
2022/05/15 05:14:37;;;;;;;7.60;1.80;;;;;;;10.26;63.36;100600.27;106191;1273;22778;-75
2022/05/15 05:17:11;;;;;;;5.40;2.00;;;;;;;10.33;63.05;100600.26;105636;1278;24328;-78
2022/05/15 05:19:38;;;;;;;8.30;2.40;;;;;;;10.37;62.80;100602.16;105667;1279;22538;-76
2022/05/15 05:22:06;;;;;;;6.90;2.70;;;;;;;10.40;62.65;100603.38;105599;1279;22610;-77
2022/05/15 05:24:34;;;;;;;9.60;2.10;;;;;;;10.40;62.42;100606.71;105479;1278;25377;-78
2022/05/15 05:27:03;;;;;;;8.30;2.60;;;;;;;10.38;62.08;100610.07;105575;1281;22591;-77
2022/05/15 05:29:30;;;;;;;8.90;2.70;;;;;;;10.39;61.87;100610.61;105869;1278;24262;-76
2022/05/15 05:31:57;;;;;;;6.40;2.60;;;;;;;10.44;61.59;100611.10;105744;1278;26512;-76
2022/05/15 05:34:24;;;;;;;11.20;3.30;;;;;;;10.47;61.14;100609.72;105865;1278;24447;-81
2022/05/15 05:36:52;;;;;;;8.10;2.50;;;;;;;10.51;61.18;100611.98;106029;1274;24319;-78
2022/05/15 05:39:19;;;;;;;6.50;2.20;;;;;;;10.57;60.86;100609.48;106160;1272;23967;-78
2022/05/15 05:41:46;;;;;;;7.30;2.70;;;;;;;10.59;60.31;100607.53;106267;1273;25372;-77
2022/05/15 05:44:13;;;;;;;8.80;2.30;;;;;;;10.61;59.93;100609.98;106241;1273;23194;-78
2022/05/15 05:46:40;;;;;;;9.10;2.60;;;;;;;10.65;59.72;100604.50;106205;1273;22553;-76
2022/05/15 05:49:07;;;;;;;8.30;3.00;;;;;;;10.67;59.13;100607.32;106331;1273;22645;-77
2022/05/15 05:51:35;;;;;;;9.00;3.50;;;;;;;10.66;59.03;100605.91;106074;1272;22564;-79
2022/05/15 05:54:02;;;;;;;8.20;3.40;;;;;;;10.69;58.88;100603.08;106148;1271;24222;-75
2022/05/15 05:56:28;;;;;;;7.00;2.30;;;;;;;10.73;58.87;100608.86;106044;1273;22542;-78
2022/05/15 05:58:56;;;;;;;10.00;2.10;;;;;;;10.80;58.80;100600.89;106250;1272;24204;-76
2022/05/15 06:01:22;;;;;;;5.60;1.80;;;;;;;10.86;58.33;100604.20;106287;1271;26572;-77
2022/05/15 06:06:36;;;;;;;6.10;1.90;;;;;;;10.91;57.57;100604.17;106519;1277;25395;-80
2022/05/15 06:09:04;;;;;;;3.90;1.30;;;;;;;10.95;57.59;100605.90;106274;1277;23338;-87
2022/05/15 06:11:31;;;;;;;7.50;1.60;;;;;;;11.00;57.67;100615.38;105946;1278;22854;-78
2022/05/15 06:13:58;;;;;;;6.10;1.90;;;;;;;11.06;57.05;100615.86;106055;1276;22542;-79
2022/05/15 06:16:25;;;;;;;7.90;1.70;;;;;;;11.09;56.95;100613.55;105982;1279;26685;-81
2022/05/15 06:18:52;;;;;;;5.10;1.30;;;;;;;11.17;57.03;100618.06;105898;1277;26631;-79
2022/05/15 06:21:20;;;;;;;4.50;1.50;;;;;;;11.23;56.54;100615.20;105576;1281;25056;-79
2022/05/15 06:23:47;;;;;;;7.40;1.40;;;;;;;11.24;56.33;100611.33;105745;1283;23930;-80
2022/05/15 06:26:14;;;;;;;8.50;1.90;;;;;;;11.29;56.43;100619.20;106042;1280;24234;-81
2022/05/15 06:28:42;;;;;;;5.30;1.40;;;;;;;11.35;56.54;100618.29;106389;1280;24029;-79
2022/05/15 06:31:09;;;;;;;6.30;1.60;;;;;;;11.43;56.33;100623.14;106488;1279;24224;-80
2022/05/15 06:33:36;;;;;;;3.80;1.60;;;;;;;11.49;56.42;100623.80;106652;1277;22560;-77
2022/05/15 06:36:03;;;;;;;6.10;1.60;;;;;;;11.51;56.19;100623.42;106627;1274;24185;-82
2022/05/15 06:38:30;;;;;;;6.30;1.50;;;;;;;11.54;56.20;100623.93;106444;1276;22774;-79
2022/05/15 06:40:57;;;;;;;7.00;1.80;;;;;;;11.58;56.27;100626.02;106783;1273;23926;-80
2022/05/15 06:43:25;;;;;;;3.70;1.30;;;;;;;11.67;56.28;100630.52;107196;1274;22533;-81
2022/05/15 06:45:54;;;;;;;3.90;1.20;;;;;;;11.74;56.19;100626.55;107128;1271;24287;-82
2022/05/15 06:48:21;;;;;;;3.60;1.70;;;;;;;11.80;55.98;100625.44;106746;1271;22885;-81
2022/05/15 06:50:49;;;;;;;7.30;1.80;;;;;;;11.85;55.72;100629.44;106432;1273;24178;-82
2022/05/15 06:53:17;;;;;;;3.70;1.50;;;;;;;11.90;55.65;100628.67;106324;1273;22538;-83
2022/05/15 06:58:34;;;;;;;8.90;2.00;;;;;;;11.95;55.26;100632.52;106560;1273;23932;-84
2022/05/15 07:01:01;;;;;;;3.40;1.40;;;;;;;11.99;54.99;100634.77;106391;1273;22528;-85
2022/05/15 07:03:28;;;;;;;3.80;1.10;;;;;;;12.04;55.04;100631.72;106588;1272;22801;-85
2022/05/15 07:05:56;;;;;;;4.20;1.40;;;;;;;12.14;54.67;100633.57;106743;1274;22702;-85
2022/05/15 07:08:23;;;;;;;6.50;1.70;;;;;;;12.21;54.51;100634.20;107102;1271;22523;-84
2022/05/15 07:10:50;;;;;;;7.60;1.60;;;;;;;12.27;54.23;100636.61;106817;1271;25379;-84
2022/05/15 07:13:19;;;;;;;7.60;1.80;;;;;;;12.33;53.85;100639.17;106980;1273;24023;-87
2022/05/15 07:15:47;;;;;;;4.60;1.30;;;;;;;12.36;53.37;100637.52;107002;1274;23916;-83
2022/05/15 07:18:14;;;;;;;5.30;1.50;;;;;;;12.43;53.45;100635.70;106427;1274;22526;-84
2022/05/15 07:20:42;;;;;;;7.70;1.90;;;;;;;12.54;53.70;100638.73;106522;1272;22577;-85
2022/05/15 07:23:09;;;;;;;7.00;1.50;;;;;;;12.67;53.15;100646.69;106796;1272;26511;-85
2022/05/15 07:25:36;;;;;;;7.80;1.50;;;;;;;12.75;52.73;100643.92;106724;1272;22615;-87
2022/05/15 07:28:05;;;;;;;2.70;1.20;;;;;;;12.79;52.15;100639.96;106846;1272;23981;-85
2022/05/15 07:30:36;;;;;;;10.20;2.10;;;;;;;12.83;51.87;100647.17;106779;1271;25356;-85
2022/05/15 07:33:06;;;;;;;9.00;1.70;;;;;;;12.90;52.16;100649.39;106787;1271;24061;-84
2022/05/15 07:35:33;;;;;;;4.30;1.60;;;;;;;12.97;52.23;100646.09;106797;1271;22665;-85
2022/05/15 07:38:01;;;;;;;6.50;2.20;;;;;;;13.03;51.89;100653.23;107094;1271;24271;-85
2022/05/15 07:40:28;;;;;;;5.00;1.50;;;;;;;13.12;51.69;100652.75;107267;1271;22573;-85
2022/05/15 07:42:55;;;;;;;7.00;2.30;;;;;;;13.17;51.69;100654.27;107576;1271;24154;-85
2022/05/15 07:45:23;;;;;;;6.80;2.00;;;;;;;13.20;51.35;100657.05;107651;1271;22544;-84
2022/05/15 07:47:50;;;;;;;5.30;2.00;;;;;;;13.29;51.19;100655.31;107861;1272;22534;-85
2022/05/15 07:50:18;;;;;;;8.20;2.30;;;;;;;13.46;51.31;100647.44;108309;1271;23123;-84
2022/05/15 07:52:47;;;;;;;5.40;2.00;;;;;;;13.63;50.73;100653.91;107556;1271;22560;-85
2022/05/15 07:55:15;;;;;;;5.10;1.50;;;;;;;13.75;50.45;100660.07;107723;1271;23348;-86
2022/05/15 07:57:42;;;;;;;6.20;1.60;;;;;;;13.84;50.07;100660.25;107255;1272;22465;-86
2022/05/15 08:00:16;;;;;;;8.50;1.40;;;;;;;13.93;49.96;100654.79;106478;1279;22822;-86
2022/05/15 08:02:46;;;;;;;6.30;1.60;;;;;;;14.01;49.17;100656.41;106486;1277;24375;-86
2022/05/15 08:08:09;;;;;;;10.20;1.70;;;;;;;13.89;49.45;100667.96;107766;1277;23851;-86
2022/05/15 08:10:44;;;;;;;3.40;1.30;;;;;;;13.92;49.22;100663.83;108474;1277;22567;-84
2022/05/15 08:13:16;;;;;;;4.80;1.80;;;;;;;13.89;49.12;100662.30;108653;1278;23775;-85
2022/05/15 08:15:44;;;;;;;2.80;1.20;;;;;;;13.85;48.91;100666.06;108622;1278;22721;-85
2022/05/15 08:23:49;;;;;;;7.60;1.80;;;;;;;14.41;48.89;100667.11;109245;1273;22678;-86
2022/05/15 08:26:17;;;;;;;5.10;1.50;;;;;;;14.52;47.98;100670.63;108427;1274;22719;-83
2022/05/15 08:28:46;;;;;;;4.00;1.20;;;;;;;14.38;47.21;100673.75;106713;1274;22650;-80
2022/05/15 08:31:14;;;;;;;6.30;1.60;;;;;;;14.30;47.42;100681.52;106790;1274;25915;-81
2022/05/15 08:33:41;;;;;;;6.40;2.20;;;;;;;14.39;47.62;100672.13;106913;1274;22476;-79
2022/05/15 08:36:09;;;;;;;7.00;1.50;;;;;;;14.56;48.07;100673.38;107105;1271;22574;-79
2022/05/15 08:38:37;;;;;;;3.60;1.40;;;;;;;14.68;47.88;100680.90;106671;1281;25332;-79
2022/05/15 08:41:18;;;;;;;3.20;1.70;;;;;;;14.59;47.41;100681.64;106305;1278;22550;-82
2022/05/15 08:44:14;;;;;;;4.90;2.00;;;;;;;14.63;47.64;100673.93;106307;1281;24333;-81
2022/05/15 08:46:51;;;;;;;;;;;;;;;14.69;46.68;100685.33;105650;1286;22549;-81
2022/05/15 08:49:30;;;;;;;7.30;2.00;;;;;;;14.74;46.81;100680.63;105567;1287;24650;-83
2022/05/15 08:52:23;;;;;;;5.30;1.60;;;;;;;14.90;46.96;100680.31;105693;1285;22739;-81
2022/05/15 08:55:00;;;;;;;5.60;1.40;;;;;;;14.98;46.78;100681.02;106103;1287;22541;-84
2022/05/15 08:57:37;;;;;;;;;;;;;;;14.95;45.84;100687.11;105924;1281;26593;-83
2022/05/15 09:00:10;;;;;;;4.70;1.30;;;;;;;14.97;45.20;100686.16;106964;1281;24391;-85
2022/05/15 09:02:40;;;;;;;5.50;1.30;;;;;;;15.09;45.58;100688.19;107060;1284;22545;-85
2022/05/15 09:05:10;;;;;;;4.30;1.40;;;;;;;15.28;45.86;100685.98;107410;1281;22560;-85
2022/05/15 09:07:43;;;;;;;7.30;1.90;;;;;;;15.36;45.97;100686.50;106373;1281;24230;-84
2022/05/15 09:10:33;;;;;;;4.20;1.60;;;;;;;15.34;45.93;100687.44;106540;1281;25608;-83
2022/05/15 09:13:11;;;;;;;6.80;1.40;;;;;;;15.24;45.28;100695.84;106112;1284;25934;-83
2022/05/15 09:15:55;;;;;;;6.50;2.00;;;;;;;15.30;45.17;100695.16;105718;1287;24186;-84
2022/05/15 09:18:23;;;;;;;4.60;1.50;;;;;;;15.55;44.81;100691.02;105752;1287;23760;-83
2022/05/15 09:21:12;;;;;;;3.60;1.50;;;;;;;15.58;44.46;100697.69;105793;1287;22606;-84
2022/05/15 09:23:46;;;;;;;5.00;1.50;;;;;;;15.47;44.25;100694.94;106046;1277;24249;-83
2022/05/15 09:26:27;;;;;;;4.00;1.30;;;;;;;15.41;44.41;100700.77;106093;1284;24251;-80
2022/05/15 09:29:00;;;;;;;4.50;1.60;;;;;;;15.63;44.69;100695.26;106098;1284;24097;-84
2022/05/15 09:31:52;;;;;;;5.10;1.20;;;;;;;15.81;44.36;100691.42;107489;1284;22715;-88
2022/05/15 09:34:30;;;;;;;7.70;1.70;;;;;;;16.02;43.51;100695.33;107902;1285;22721;-88
2022/05/15 09:40:03;;;;;;;4.90;1.50;;;;;;;16.04;43.55;100701.34;108236;1284;22619;-83
2022/05/15 09:45:21;;;;;;;3.20;1.80;;;;;;;16.33;42.49;100700.57;108268;1284;22707;-80
2022/05/15 09:47:51;;;;;;;7.40;2.30;;;;;;;16.37;41.81;100703.47;108577;1283;22620;-80
2022/05/15 09:50:49;;;;;;;7.40;1.40;;;;;;;16.50;41.51;100698.12;108048;1284;22659;-81
2022/05/15 09:53:21;;;;;;;6.90;2.20;;;;;;;16.76;41.05;100693.09;107243;1284;22561;-81
2022/05/15 09:56:01;;;;;;;5.90;2.20;;;;;;;16.85;40.91;100695.14;106244;1286;22618;-82
2022/05/15 09:58:53;;;;;;;5.60;2.10;;;;;;;16.59;40.36;100701.23;106233;1287;22766;-78
2022/05/15 10:01:22;;;;;;;4.60;1.70;;;;;;;16.20;40.62;100703.04;105492;1293;22732;-83
2022/05/15 10:03:53;;;;;;;5.00;1.80;;;;;;;16.21;40.90;100704.07;105386;1291;22589;-77
2022/05/15 10:06:24;;;;;;;3.90;1.50;;;;;;;16.48;40.82;100699.41;105327;1290;22738;-77
2022/05/15 10:09:11;;;;;;;4.60;1.90;;;;;;;16.65;40.38;100696.08;105037;1290;22717;-78
2022/05/15 10:11:52;;;;;;;4.90;1.20;;;;;;;16.58;40.55;100695.75;105454;1285;25358;-75
2022/05/15 10:14:28;;;;;;;5.00;1.50;;;;;;;16.48;40.66;100700.48;106236;1284;24362;-76
2022/05/15 10:16:58;;;;;;;9.50;1.60;;;;;;;16.70;40.98;100700.02;105633;1284;24289;-77
2022/05/15 10:19:34;;;;;;;2.80;1.20;;;;;;;16.98;40.85;100701.67;105326;1285;26492;-76
2022/05/15 10:22:41;;;;;;;5.00;1.80;;;;;;;16.98;40.30;100697.23;105891;1277;22746;-76
2022/05/15 10:25:17;;;;;;;8.30;2.80;;;;;;;17.08;40.32;100702.09;105988;1278;22551;-77
2022/05/15 10:27:54;;;;;;;7.10;2.00;;;;;;;17.37;40.44;100696.22;106143;1277;22480;-79
2022/05/15 10:30:33;;;;;;;3.30;1.50;;;;;;;17.73;39.14;100685.41;106117;1277;22648;-78
2022/05/15 10:33:19;;;;;;;3.40;1.50;;;;;;;17.89;38.96;100689.14;105926;1277;25907;-79
2022/05/15 10:36:12;;;;;;;3.10;1.40;;;;;;;18.20;38.81;100697.68;106156;1277;24401;-76
2022/05/15 10:38:54;;;;;;;6.00;1.80;;;;;;;18.39;37.24;100698.29;106441;1273;24492;-76
2022/05/15 10:41:29;;;;;;;4.60;1.30;;;;;;;18.58;37.97;100694.19;106264;1271;24733;-77
2022/05/15 10:44:11;;;;;;;4.60;1.20;;;;;;;18.97;37.42;100688.60;106278;1271;22563;-76
2022/05/15 10:46:55;;;;;;;2.20;1.20;;;;;;;19.12;36.49;100696.27;106308;1271;22715;-77
2022/05/15 10:49:44;;;;;;;3.30;1.30;;;;;;;19.18;36.95;100682.08;105920;1278;25256;-74
2022/05/15 10:52:19;;;;;;;3.50;1.90;;;;;;;19.16;36.52;100693.23;105740;1278;25511;-77
2022/05/15 10:58:07;;;;;;;3.30;1.30;;;;;;;19.44;35.96;100694.27;105100;1284;25352;-75
2022/05/15 11:01:17;;;;;;;3.80;1.20;;;;;;;19.58;35.54;100683.84;105464;1281;26702;-79
2022/05/15 11:04:06;;;;;;;2.60;1.20;;;;;;;19.70;34.95;100683.52;105315;1282;24213;-77
2022/05/15 11:06:50;;;;;;;3.40;1.10;;;;;;;19.65;34.93;100678.55;105504;1282;25532;-78
2022/05/15 11:09:17;;;;;;;6.50;1.40;;;;;;;19.57;35.01;100690.68;105996;1277;25405;-78
2022/05/15 11:11:59;;;;;;;3.50;1.20;;;;;;;19.50;34.61;100686.48;105979;1276;22519;-79
2022/05/15 11:14:51;;;;;;;3.00;1.20;;;;;;;19.16;35.07;100682.89;105628;1279;25310;-78
2022/05/15 11:17:29;;;;;;;3.90;1.40;;;;;;;19.25;35.61;100685.02;105746;1276;26047;-77
2022/05/15 11:20:07;;;;;;;6.20;1.30;;;;;;;19.34;35.30;100684.10;105911;1276;22605;-76
2022/05/15 11:22:44;;;;;;;2.40;1.20;;;;;;;19.56;35.27;100677.30;105213;1280;22839;-79
2022/05/15 11:25:19;;;;;;;3.20;1.70;;;;;;;19.70;34.80;100668.32;105602;1281;23015;-76
2022/05/15 11:27:49;;;;;;;4.40;1.50;;;;;;;19.76;35.03;100661.30;105879;1279;25367;-78
2022/05/15 11:30:16;;;;;;;3.70;1.70;;;;;;;20.07;34.62;100672.83;105020;1286;25422;-78
2022/05/15 11:32:44;;;;;;;3.40;1.20;;;;;;;20.26;34.01;100673.77;104643;1287;25673;-78
2022/05/15 11:35:17;;;;;;;4.50;1.40;;;;;;;20.39;33.81;100671.58;105234;1287;23779;-80
2022/05/15 11:37:56;;;;;;;3.70;1.10;;;;;;;20.19;33.53;100668.95;105736;1287;24430;-78
2022/05/15 11:40:39;;;;;;;3.60;1.20;;;;;;;19.80;33.40;100666.48;105219;1290;22597;-78
2022/05/15 11:43:28;;;;;;;2.90;1.30;;;;;;;19.58;33.89;100671.88;105078;1291;26644;-78
2022/05/15 11:46:09;;;;;;;4.00;1.30;;;;;;;19.96;34.21;100672.94;105300;1290;22841;-76
2022/05/15 11:48:39;;;;;;;3.40;1.40;;;;;;;20.18;33.09;100665.75;105992;1284;23947;-75
2022/05/15 11:51:25;;;;;;;6.60;1.80;;;;;;;20.30;33.34;100657.86;106736;1278;23970;-75
2022/05/15 11:53:52;;;;;;;;;;;;;;;20.66;33.72;100658.58;106649;1281;24269;-76
2022/05/15 11:56:39;;;;;;;3.70;1.20;;;;;;;20.95;32.65;100661.52;106554;1278;25423;-77
2022/05/15 11:59:15;;;;;;;5.40;1.60;;;;;;;21.00;31.82;100661.96;106362;1273;25316;-76
2022/05/15 12:01:50;;;;;;;2.30;1.10;;;;;;;20.87;31.71;100659.17;106584;1271;25914;-77
2022/05/15 12:04:17;;;;;;;2.40;1.30;;;;;;;20.80;31.91;100660.77;106301;1272;24292;-81